Aline, Oklahoma
Current Conditions -  °F | °C
As of 1:35 PM on Thursday 18 Dec 2014 (Local Time) from KAVK Reporting Station
Overcast Overcast  
Wind Chill: 29°   Ceiling: 600
Heat Index: 36°   Visibility: 7mi
Dew Point: 36°   Wind: 8mph
Humidity: 100%   Direction: 360°N
Pressure: 30.17"   Gusts: NA
Location:  36.51°N, 98.45°W
Report Text: KAVK 181935Z AUTO 36007KT 7SM OVC006 02/02 A3017 RMK AO2
Loading
Personal Weather Stations






























Interactive Weather Map New forecast layout! Learn more

10-Day Weather Forecast

Advertisements
Track Severe Weather on mobile